sensor_id;sensor_type;location;lat;lon;timestamp;pressure;altitude;pressure_sealevel;temperature;humidity
71485;BME280;59300;52.074;4.758;2023-02-03T00:02:06;102533.84;;;7.69;100.00
71485;BME280;59300;52.074;4.758;2023-02-03T00:05:08;102533.75;;;7.63;100.00
71485;BME280;59300;52.074;4.758;2023-02-03T00:08:09;102547.81;;;7.64;100.00
71485;BME280;59300;52.074;4.758;2023-02-03T00:11:11;102543.50;;;7.71;100.00
71485;BME280;59300;52.074;4.758;2023-02-03T00:14:12;102536.47;;;7.71;100.00
71485;BME280;59300;52.074;4.758;2023-02-03T00:17:14;102538.25;;;7.71;100.00
71485;BME280;59300;52.074;4.758;2023-02-03T00:20:15;102527.66;;;7.64;100.00
71485;BME280;59300;52.074;4.758;2023-02-03T00:23:16;102543.41;;;7.64;100.00
71485;BME280;59300;52.074;4.758;2023-02-03T00:26:18;102527.63;;;7.61;100.00
71485;BME280;59300;52.074;4.758;2023-02-03T00:29:20;102542.66;;;7.73;100.00
71485;BME280;59300;52.074;4.758;2023-02-03T00:32:22;102549.66;;;7.73;100.00
71485;BME280;59300;52.074;4.758;2023-02-03T00:35:23;102552.19;;;7.66;100.00
71485;BME280;59300;52.074;4.758;2023-02-03T00:38:27;102543.50;;;7.71;100.00
71485;BME280;59300;52.074;4.758;2023-02-03T00:41:29;102548.00;;;7.79;100.00
71485;BME280;59300;52.074;4.758;2023-02-03T00:44:31;102557.53;;;7.73;100.00
71485;BME280;59300;52.074;4.758;2023-02-03T00:47:32;102557.59;;;7.79;100.00
71485;BME280;59300;52.074;4.758;2023-02-03T00:50:34;102559.31;;;7.77;100.00
71485;BME280;59300;52.074;4.758;2023-02-03T00:53:35;102540.88;;;7.71;100.00
71485;BME280;59300;52.074;4.758;2023-02-03T00:56:36;102548.81;;;7.74;100.00
71485;BME280;59300;52.074;4.758;2023-02-03T00:59:39;102545.22;;;7.70;100.00
71485;BME280;59300;52.074;4.758;2023-02-03T01:02:40;102530.41;;;7.77;100.00
71485;BME280;59300;52.074;4.758;2023-02-03T01:05:42;102532.09;;;7.67;100.00
71485;BME280;59300;52.074;4.758;2023-02-03T01:08:43;102525.97;;;7.68;100.00
71485;BME280;59300;52.074;4.758;2023-02-03T01:11:45;102524.13;;;7.61;100.00
71485;BME280;59300;52.074;4.758;2023-02-03T01:14:47;102539.81;;;7.56;100.00
71485;BME280;59300;52.074;4.758;2023-02-03T01:17:50;102529.28;;;7.53;100.00
71485;BME280;59300;52.074;4.758;2023-02-03T01:20:51;102519.66;;;7.55;100.00
71485;BME280;59300;52.074;4.758;2023-02-03T01:23:53;102527.56;;;7.55;100.00
71485;BME280;59300;52.074;4.758;2023-02-03T01:26:54;102527.56;;;7.55;100.00
71485;BME280;59300;52.074;4.758;2023-02-03T01:29:55;102517.13;;;7.63;100.00
71485;BME280;59300;52.074;4.758;2023-02-03T01:32:57;102508.38;;;7.64;100.00
71485;BME280;59300;52.074;4.758;2023-02-03T01:35:59;102493.53;;;7.66;100.00
71485;BME280;59300;52.074;4.758;2023-02-03T01:39:01;102493.63;;;7.75;100.00
71485;BME280;59300;52.074;4.758;2023-02-03T01:42:02;102503.34;;;7.84;100.00
71485;BME280;59300;52.074;4.758;2023-02-03T01:45:05;102501.63;;;7.89;100.00
71485;BME280;59300;52.074;4.758;2023-02-03T01:48:07;102500.06;;;8.07;100.00
71485;BME280;59300;52.074;4.758;2023-02-03T01:51:09;102488.66;;;8.09;100.00
71485;BME280;59300;52.074;4.758;2023-02-03T01:54:11;102487.81;;;8.09;100.00
71485;BME280;59300;52.074;4.758;2023-02-03T01:57:35;102482.47;;;8.03;100.00
71485;BME280;59300;52.074;4.758;2023-02-03T02:00:35;102486.91;;;8.05;100.00
71485;BME280;59300;52.074;4.758;2023-02-03T02:03:41;102481.75;;;8.21;100.00
71485;BME280;59300;52.074;4.758;2023-02-03T02:06:44;102487.91;;;8.21;100.00
71485;BME280;59300;52.074;4.758;2023-02-03T02:09:46;102467.75;;;8.23;100.00
71485;BME280;59300;52.074;4.758;2023-02-03T02:12:48;102469.53;;;8.26;100.00
71485;BME280;59300;52.074;4.758;2023-02-03T02:15:53;102468.63;;;8.24;100.00
71485;BME280;59300;52.074;4.758;2023-02-03T02:22:02;102466.94;;;8.30;100.00
71485;BME280;59300;52.074;4.758;2023-02-03T02:35:06;102482.78;;;8.37;100.00
71485;BME280;59300;52.074;4.758;2023-02-03T02:41:51;102489.94;;;8.50;100.00
71485;BME280;59300;52.074;4.758;2023-02-03T02:44:58;102493.38;;;8.46;100.00
71485;BME280;59300;52.074;4.758;2023-02-03T02:48:09;102489.81;;;8.41;100.00
71485;BME280;59300;52.074;4.758;2023-02-03T02:51:13;102478.44;;;8.46;100.00
71485;BME280;59300;52.074;4.758;2023-02-03T02:54:17;102475.00;;;8.49;100.00
71485;BME280;59300;52.074;4.758;2023-02-03T02:57:21;102468.75;;;8.38;100.00
71485;BME280;59300;52.074;4.758;2023-02-03T03:00:27;102460.88;;;8.39;100.00
71485;BME280;59300;52.074;4.758;2023-02-03T03:03:29;102434.50;;;8.32;100.00
71485;BME280;59300;52.074;4.758;2023-02-03T03:06:32;102445.97;;;8.43;100.00
71485;BME280;59300;52.074;4.758;2023-02-03T03:12:40;102461.78;;;8.46;100.00
71485;BME280;59300;52.074;4.758;2023-02-03T03:15:43;102448.69;;;8.51;100.00
71485;BME280;59300;52.074;4.758;2023-02-03T03:18:46;102453.00;;;8.44;100.00
71485;BME280;59300;52.074;4.758;2023-02-03T03:21:53;102454.72;;;8.42;100.00
71485;BME280;59300;52.074;4.758;2023-02-03T03:24:59;102464.38;;;8.43;100.00
71485;BME280;59300;52.074;4.758;2023-02-03T03:28:02;102458.38;;;8.56;100.00
71485;BME280;59300;52.074;4.758;2023-02-03T03:31:05;102456.59;;;8.52;100.00
71485;BME280;59300;52.074;4.758;2023-02-03T03:34:10;102442.44;;;8.41;100.00
71485;BME280;59300;52.074;4.758;2023-02-03T03:37:17;102460.13;;;8.57;100.00
71485;BME280;59300;52.074;4.758;2023-02-03T03:40:21;102466.28;;;8.61;100.00
71485;BME280;59300;52.074;4.758;2023-02-03T03:43:25;102469.78;;;8.54;100.00
71485;BME280;59300;52.074;4.758;2023-02-03T03:46:50;102465.38;;;8.54;100.00
71485;BME280;59300;52.074;4.758;2023-02-03T03:49:50;102468.88;;;8.53;100.00
71485;BME280;59300;52.074;4.758;2023-02-03T03:52:53;102470.69;;;8.60;100.00
71485;BME280;59300;52.074;4.758;2023-02-03T03:55:55;102477.63;;;8.49;100.00
71485;BME280;59300;52.074;4.758;2023-02-03T03:58:58;102482.94;;;8.54;100.00
71485;BME280;59300;52.074;4.758;2023-02-03T04:02:02;102474.13;;;8.52;100.00
71485;BME280;59300;52.074;4.758;2023-02-03T04:05:04;102455.72;;;8.53;100.00
71485;BME280;59300;52.074;4.758;2023-02-03T04:08:06;102465.34;;;8.51;100.00
71485;BME280;59300;52.074;4.758;2023-02-03T04:11:08;102479.44;;;8.56;100.00
71485;BME280;59300;52.074;4.758;2023-02-03T04:14:09;102502.22;;;8.54;100.00
71485;BME280;59300;52.074;4.758;2023-02-03T04:17:10;102484.59;;;8.47;100.00
71485;BME280;59300;52.074;4.758;2023-02-03T04:20:12;102484.59;;;8.47;100.00
71485;BME280;59300;52.074;4.758;2023-02-03T04:23:13;102480.28;;;8.57;100.00
71485;BME280;59300;52.074;4.758;2023-02-03T04:26:15;102479.41;;;8.52;100.00
71485;BME280;59300;52.074;4.758;2023-02-03T04:29:16;102469.75;;;8.49;100.00
71485;BME280;59300;52.074;4.758;2023-02-03T04:32:18;102473.19;;;8.46;100.00
71485;BME280;59300;52.074;4.758;2023-02-03T04:35:19;102469.66;;;8.43;100.00
71485;BME280;59300;52.074;4.758;2023-02-03T04:38:20;102482.81;;;8.43;100.00
71485;BME280;59300;52.074;4.758;2023-02-03T04:41:22;102462.66;;;8.46;100.00
71485;BME280;59300;52.074;4.758;2023-02-03T04:44:23;102479.28;;;8.41;100.00
71485;BME280;59300;52.074;4.758;2023-02-03T04:47:24;102474.00;;;8.41;100.00
71485;BME280;59300;52.074;4.758;2023-02-03T04:50:26;102474.88;;;8.40;100.00
71485;BME280;59300;52.074;4.758;2023-02-03T04:53:28;102477.53;;;8.43;100.00
71485;BME280;59300;52.074;4.758;2023-02-03T04:56:29;102476.69;;;8.42;100.00
71485;BME280;59300;52.074;4.758;2023-02-03T04:59:31;102471.41;;;8.44;100.00
71485;BME280;59300;52.074;4.758;2023-02-03T05:02:32;102478.41;;;8.40;100.00
71485;BME280;59300;52.074;4.758;2023-02-03T05:05:34;102487.16;;;8.39;100.00
71485;BME280;59300;52.074;4.758;2023-02-03T05:08:35;102476.66;;;8.39;100.00
71485;BME280;59300;52.074;4.758;2023-02-03T05:11:36;102464.34;;;8.34;100.00
71485;BME280;59300;52.074;4.758;2023-02-03T05:14:38;102470.50;;;8.36;100.00
71485;BME280;59300;52.074;4.758;2023-02-03T05:17:39;102475.75;;;8.36;100.00
71485;BME280;59300;52.074;4.758;2023-02-03T05:20:41;102470.44;;;8.28;100.00
71485;BME280;59300;52.074;4.758;2023-02-03T05:23:42;102491.50;;;8.33;100.00
71485;BME280;59300;52.074;4.758;2023-02-03T05:26:44;102496.72;;;8.28;100.00
71485;BME280;59300;52.074;4.758;2023-02-03T05:29:45;102472.19;;;8.30;100.00
71485;BME280;59300;52.074;4.758;2023-02-03T05:32:47;102473.97;;;8.35;100.00
71485;BME280;59300;52.074;4.758;2023-02-03T05:35:48;102466.06;;;8.33;100.00
71485;BME280;59300;52.074;4.758;2023-02-03T05:38:50;102470.50;;;8.36;100.00
71485;BME280;59300;52.074;4.758;2023-02-03T05:41:51;102472.19;;;8.30;100.00
71485;BME280;59300;52.074;4.758;2023-02-03T05:44:53;102449.34;;;8.26;100.00
71485;BME280;59300;52.074;4.758;2023-02-03T05:47:54;102460.72;;;8.21;100.00
71485;BME280;59300;52.074;4.758;2023-02-03T05:50:55;102461.53;;;8.15;100.00
71485;BME280;59300;52.074;4.758;2023-02-03T05:53:57;102465.03;;;8.11;100.00
71485;BME280;59300;52.074;4.758;2023-02-03T05:56:58;102471.22;;;8.18;100.00
71485;BME280;59300;52.074;4.758;2023-02-03T06:00:00;102480.88;;;8.20;100.00
71485;BME280;59300;52.074;4.758;2023-02-03T06:03:01;102479.97;;;8.17;100.00
71485;BME280;59300;52.074;4.758;2023-02-03T06:06:03;102477.31;;;8.15;100.00
71485;BME280;59300;52.074;4.758;2023-02-03T06:09:05;102480.84;;;8.17;100.00
71485;BME280;59300;52.074;4.758;2023-02-03T06:12:07;102487.84;;;8.12;100.00
71485;BME280;59300;52.074;4.758;2023-02-03T06:15:09;102499.22;;;8.11;100.00
71485;BME280;59300;52.074;4.758;2023-02-03T06:18:10;102490.47;;;8.12;100.00
71485;BME280;59300;52.074;4.758;2023-02-03T06:21:12;102488.59;;;8.00;100.00
71485;BME280;59300;52.074;4.758;2023-02-03T06:24:13;102471.91;;;7.96;100.00
71485;BME280;59300;52.074;4.758;2023-02-03T06:27:15;102485.94;;;7.95;100.00
71485;BME280;59300;52.074;4.758;2023-02-03T06:30:16;102481.50;;;7.91;100.00
71485;BME280;59300;52.074;4.758;2023-02-03T06:33:18;102475.34;;;7.86;100.00
71485;BME280;59300;52.074;4.758;2023-02-03T06:36:20;102487.63;;;7.89;100.00
71485;BME280;59300;52.074;4.758;2023-02-03T06:39:21;102480.50;;;7.80;100.00
71485;BME280;59300;52.074;4.758;2023-02-03T06:42:22;102487.53;;;7.81;100.00
71485;BME280;59300;52.074;4.758;2023-02-03T06:45:24;102501.63;;;7.89;100.00
71485;BME280;59300;52.074;4.758;2023-02-03T06:48:26;102503.38;;;7.90;100.00
71485;BME280;59300;52.074;4.758;2023-02-03T06:51:27;102515.75;;;7.97;100.00
71485;BME280;59300;52.074;4.758;2023-02-03T06:54:28;102521.00;;;7.97;100.00
71485;BME280;59300;52.074;4.758;2023-02-03T06:57:30;102518.47;;;8.08;100.00
71485;BME280;59300;52.074;4.758;2023-02-03T07:00:31;102529.88;;;8.09;100.00
71485;BME280;59300;52.074;4.758;2023-02-03T07:03:33;102542.16;;;8.11;100.00
71485;BME280;59300;52.074;4.758;2023-02-03T07:06:34;102524.69;;;8.17;100.00
71485;BME280;59300;52.074;4.758;2023-02-03T07:09:37;102514.13;;;8.15;100.00
71485;BME280;59300;52.074;4.758;2023-02-03T07:12:38;102515.88;;;8.13;100.00
71485;BME280;59300;52.074;4.758;2023-02-03T07:15:39;102525.56;;;8.15;100.00
71485;BME280;59300;52.074;4.758;2023-02-03T07:18:41;102521.19;;;8.19;100.00
71485;BME280;59300;52.074;4.758;2023-02-03T07:21:49;102548.38;;;8.17;100.00
71485;BME280;59300;52.074;4.758;2023-02-03T07:24:51;102523.78;;;8.16;100.00
71485;BME280;59300;52.074;4.758;2023-02-03T07:27:53;102539.56;;;8.14;100.00
71485;BME280;59300;52.074;4.758;2023-02-03T07:30:55;102526.50;;;8.22;100.00
71485;BME280;59300;52.074;4.758;2023-02-03T07:33:56;102535.28;;;8.24;100.00
71485;BME280;59300;52.074;4.758;2023-02-03T07:36:59;102535.28;;;8.24;100.00
71485;BME280;59300;52.074;4.758;2023-02-03T07:40:17;102526.47;;;8.19;100.00
71485;BME280;59300;52.074;4.758;2023-02-03T07:43:19;102538.75;;;8.20;100.00
71485;BME280;59300;52.074;4.758;2023-02-03T07:46:20;102530.91;;;8.26;100.00
71485;BME280;59300;52.074;4.758;2023-02-03T07:49:22;102531.75;;;8.25;100.00
71485;BME280;59300;52.074;4.758;2023-02-03T07:52:23;102515.97;;;8.25;100.00
71485;BME280;59300;52.074;4.758;2023-02-03T07:55:24;102527.47;;;8.35;100.00
71485;BME280;59300;52.074;4.758;2023-02-03T07:58:26;102540.63;;;8.34;100.00
71485;BME280;59300;52.074;4.758;2023-02-03T08:01:27;102550.31;;;8.38;100.00
71485;BME280;59300;52.074;4.758;2023-02-03T08:04:29;102553.81;;;8.37;100.00
71485;BME280;59300;52.074;4.758;2023-02-03T08:07:30;102558.22;;;8.41;100.00
71485;BME280;59300;52.074;4.758;2023-02-03T08:10:31;102561.69;;;8.40;100.00
71485;BME280;59300;52.074;4.758;2023-02-03T08:13:33;102558.19;;;8.38;100.00
71485;BME280;59300;52.074;4.758;2023-02-03T08:16:34;102569.59;;;8.40;100.00
71485;BME280;59300;52.074;4.758;2023-02-03T08:19:36;102579.25;;;8.41;100.00
71485;BME280;59300;52.074;4.758;2023-02-03T08:22:37;102582.75;;;8.40;100.00
71485;BME280;59300;52.074;4.758;2023-02-03T08:25:39;102574.00;;;8.41;100.00
71485;BME280;59300;52.074;4.758;2023-02-03T08:28:40;102568.75;;;8.44;100.00
71485;BME280;59300;52.074;4.758;2023-02-03T08:31:42;102563.53;;;8.47;100.00
71485;BME280;59300;52.074;4.758;2023-02-03T08:34:44;102567.00;;;8.43;100.00
71485;BME280;59300;52.074;4.758;2023-02-03T08:37:45;102582.78;;;8.43;100.00
71485;BME280;59300;52.074;4.758;2023-02-03T08:40:47;102572.28;;;8.46;100.00
71485;BME280;59300;52.074;4.758;2023-02-03T08:43:48;102563.59;;;8.50;100.00
71485;BME280;59300;52.074;4.758;2023-02-03T08:46:50;102577.63;;;8.51;100.00
71485;BME280;59300;52.074;4.758;2023-02-03T08:49:55;102574.94;;;8.46;100.00
71485;BME280;59300;52.074;4.758;2023-02-03T08:53:05;102598.69;;;8.52;100.00
71485;BME280;59300;52.074;4.758;2023-02-03T08:56:07;102592.59;;;8.56;100.00
71485;BME280;59300;52.074;4.758;2023-02-03T08:59:09;102588.19;;;8.55;100.00
71485;BME280;59300;52.074;4.758;2023-02-03T09:02:15;102594.41;;;8.65;100.00
71485;BME280;59300;52.074;4.758;2023-02-03T09:05:24;102607.66;;;8.73;100.00
71485;BME280;59300;52.074;4.758;2023-02-03T09:08:30;102618.19;;;8.73;100.00
71485;BME280;59300;52.074;4.758;2023-02-03T09:11:32;102606.72;;;8.66;100.00
71485;BME280;59300;52.074;4.758;2023-02-03T09:14:33;102631.31;;;8.71;100.00
71485;BME280;59300;52.074;4.758;2023-02-03T09:17:34;102636.56;;;8.71;100.00
71485;BME280;59300;52.074;4.758;2023-02-03T09:20:36;102604.19;;;8.80;100.00
71485;BME280;59300;52.074;4.758;2023-02-03T09:23:38;102612.91;;;8.76;100.00
71485;BME280;59300;52.074;4.758;2023-02-03T09:26:40;102640.16;;;8.80;100.00
71485;BME280;59300;52.074;4.758;2023-02-03T09:29:41;102640.22;;;8.84;100.00
71485;BME280;59300;52.074;4.758;2023-02-03T09:32:42;102635.81;;;8.85;100.00
71485;BME280;59300;52.074;4.758;2023-02-03T09:35:50;102629.66;;;8.86;100.00
71485;BME280;59300;52.074;4.758;2023-02-03T09:38:55;102640.28;;;8.94;100.00
71485;BME280;59300;52.074;4.758;2023-02-03T09:48:14;102649.22;;;9.16;100.00
71485;BME280;59300;52.074;4.758;2023-02-03T09:51:36;102656.25;;;9.18;100.00
71485;BME280;59300;52.074;4.758;2023-02-03T09:57:51;102668.59;;;9.22;100.00
71485;BME280;59300;52.074;4.758;2023-02-03T10:00:56;102667.75;;;9.30;100.00
71485;BME280;59300;52.074;4.758;2023-02-03T10:04:34;102655.41;;;9.22;100.00
71485;BME280;59300;52.074;4.758;2023-02-03T10:07:29;102674.78;;;9.29;100.00
71485;BME280;59300;52.074;4.758;2023-02-03T10:17:37;102678.25;;;9.25;100.00
71485;BME280;59300;52.074;4.758;2023-02-03T10:20:50;102685.38;;;9.37;100.00
71485;BME280;59300;52.074;4.758;2023-02-03T10:23:57;102687.16;;;9.44;100.00
71485;BME280;59300;52.074;4.758;2023-02-03T10:27:02;102694.13;;;9.33;100.00
71485;BME280;59300;52.074;4.758;2023-02-03T10:30:19;102688.88;;;9.36;100.00
71485;BME280;59300;52.074;4.758;2023-02-03T10:33:23;102695.03;;;9.38;100.00
71485;BME280;59300;52.074;4.758;2023-02-03T10:39:46;102681.91;;;9.43;100.00
71485;BME280;59300;52.074;4.758;2023-02-03T10:42:57;102703.03;;;9.52;100.00
71485;BME280;59300;52.074;4.758;2023-02-03T10:45:58;102707.38;;;9.47;100.00
71485;BME280;59300;52.074;4.758;2023-02-03T10:49:00;102718.88;;;9.57;100.00
71485;BME280;59300;52.074;4.758;2023-02-03T10:52:01;102718.88;;;9.55;100.00
71485;BME280;59300;52.074;4.758;2023-02-03T10:55:04;102713.66;;;9.69;100.00
71485;BME280;59300;52.074;4.758;2023-02-03T10:58:09;102714.56;;;9.70;100.00
71485;BME280;59300;52.074;4.758;2023-02-03T11:01:16;102723.34;;;9.70;100.00
71485;BME280;59300;52.074;4.758;2023-02-03T11:07:25;102707.56;;;9.73;100.00
71485;BME280;59300;52.074;4.758;2023-02-03T11:10:29;102717.25;;;9.80;100.00
71485;BME280;59300;52.074;4.758;2023-02-03T11:13:31;102716.38;;;9.80;100.00
71485;BME280;59300;52.074;4.758;2023-02-03T11:16:33;102723.41;;;9.81;100.00
71485;BME280;59300;52.074;4.758;2023-02-03T11:19:35;102717.22;;;9.77;100.00
71485;BME280;59300;52.074;4.758;2023-02-03T11:22:38;102703.16;;;9.78;100.00
71485;BME280;59300;52.074;4.758;2023-02-03T11:25:42;102704.91;;;9.73;100.00
71485;BME280;59300;52.074;4.758;2023-02-03T11:28:54;102719.00;;;9.81;100.00
71485;BME280;59300;52.074;4.758;2023-02-03T11:31:58;102727.78;;;9.74;100.00
71485;BME280;59300;52.074;4.758;2023-02-03T11:35:13;102717.22;;;9.74;100.00
71485;BME280;59300;52.074;4.758;2023-02-03T11:38:27;102733.94;;;9.79;100.00
71485;BME280;59300;52.074;4.758;2023-02-03T11:41:29;102710.19;;;9.73;100.00
71485;BME280;59300;52.074;4.758;2023-02-03T11:44:39;102715.53;;;9.86;100.00
71485;BME280;59300;52.074;4.758;2023-02-03T11:47:48;102708.44;;;9.75;100.00
71485;BME280;59300;52.074;4.758;2023-02-03T11:57:28;102731.31;;;9.79;100.00
71485;BME280;59300;52.074;4.758;2023-02-03T12:00:49;102722.47;;;9.71;100.00
71485;BME280;59300;52.074;4.758;2023-02-03T12:10:43;102721.66;;;9.81;100.00
71485;BME280;59300;52.074;4.758;2023-02-03T12:14:07;102717.28;;;9.83;100.00
71485;BME280;59300;52.074;4.758;2023-02-03T12:20:57;102728.66;;;9.79;100.00
71485;BME280;59300;52.074;4.758;2023-02-03T12:24:06;102726.88;;;9.74;100.00
71485;BME280;59300;52.074;4.758;2023-02-03T12:30:38;102723.41;;;9.84;100.00
71485;BME280;59300;52.074;4.758;2023-02-03T12:33:44;102738.34;;;9.80;100.00
71485;BME280;59300;52.074;4.758;2023-02-03T12:36:54;102730.47;;;9.83;100.00
71485;BME280;59300;52.074;4.758;2023-02-03T12:39:58;102741.94;;;9.89;100.00
71485;BME280;59300;52.074;4.758;2023-02-03T12:46:13;102749.91;;;10.03;100.00
71485;BME280;59300;52.074;4.758;2023-02-03T12:49:25;102743.78;;;10.11;100.00
71485;BME280;59300;52.074;4.758;2023-02-03T12:52:33;102771.88;;;10.00;100.00
71485;BME280;59300;52.074;4.758;2023-02-03T13:01:56;102748.09;;;9.98;100.00
71485;BME280;59300;52.074;4.758;2023-02-03T13:05:14;102753.31;;;9.80;100.00
71485;BME280;59300;52.074;4.758;2023-02-03T13:21:30;102799.09;;;8.89;100.00
71485;BME280;59300;52.074;4.758;2023-02-03T13:24:32;102800.81;;;8.84;100.00
71485;BME280;59300;52.074;4.758;2023-02-03T13:27:41;102812.13;;;8.74;100.00
71485;BME280;59300;52.074;4.758;2023-02-03T13:30:49;102818.13;;;8.64;100.00
71485;BME280;59300;52.074;4.758;2023-02-03T13:40:34;102810.22;;;8.60;100.00
71485;BME280;59300;52.074;4.758;2023-02-03T13:43:42;102809.34;;;8.65;100.00
71485;BME280;59300;52.074;4.758;2023-02-03T13:46:46;102822.50;;;8.63;100.00
71485;BME280;59300;52.074;4.758;2023-02-03T13:49:50;102810.25;;;8.65;100.00
71485;BME280;59300;52.074;4.758;2023-02-03T13:52:58;102811.97;;;8.65;100.00
71485;BME280;59300;52.074;4.758;2023-02-03T13:56:02;102823.38;;;8.64;100.00
71485;BME280;59300;52.074;4.758;2023-02-03T13:59:13;102824.28;;;8.63;100.00
71485;BME280;59300;52.074;4.758;2023-02-03T14:05:41;102833.03;;;8.63;100.00
71485;BME280;59300;52.074;4.758;2023-02-03T14:08:49;102833.84;;;8.57;100.00
71485;BME280;59300;52.074;4.758;2023-02-03T14:11:50;102837.34;;;8.56;100.00
71485;BME280;59300;52.074;4.758;2023-02-03T14:17:55;102841.78;;;8.60;100.00
71485;BME280;59300;52.074;4.758;2023-02-03T14:21:07;102835.72;;;8.68;100.00
71485;BME280;59300;52.074;4.758;2023-02-03T14:24:10;102839.25;;;8.68;100.00
71485;BME280;59300;52.074;4.758;2023-02-03T14:30:17;102841.03;;;8.72;100.00
71485;BME280;59300;52.074;4.758;2023-02-03T14:33:18;102841.91;;;8.70;100.00
71485;BME280;59300;52.074;4.758;2023-02-03T14:36:27;102846.34;;;8.75;100.00
71485;BME280;59300;52.074;4.758;2023-02-03T14:39:39;102850.75;;;8.75;100.00
71485;BME280;59300;52.074;4.758;2023-02-03T14:55:45;102879.81;;;8.84;100.00
71485;BME280;59300;52.074;4.758;2023-02-03T14:59:00;102869.31;;;8.87;100.00
71485;BME280;59300;52.074;4.758;2023-02-03T15:02:07;102868.28;;;8.74;100.00
71485;BME280;59300;52.074;4.758;2023-02-03T15:08:33;102857.88;;;8.85;100.00
71485;BME280;59300;52.074;4.758;2023-02-03T15:11:42;102872.69;;;8.77;100.00
71485;BME280;59300;52.074;4.758;2023-02-03T15:14:44;102877.06;;;8.75;100.00
71485;BME280;59300;52.074;4.758;2023-02-03T15:17:46;102869.19;;;8.78;100.00
71485;BME280;59300;52.074;4.758;2023-02-03T15:20:51;102878.81;;;8.76;100.00
71485;BME280;59300;52.074;4.758;2023-02-03T15:23:53;102880.56;;;8.74;100.00
71485;BME280;59300;52.074;4.758;2023-02-03T15:26:55;102869.19;;;8.78;100.00
71485;BME280;59300;52.074;4.758;2023-02-03T15:29:56;102883.22;;;8.77;100.00
71485;BME280;59300;52.074;4.758;2023-02-03T15:36:06;102884.06;;;8.74;100.00
71485;BME280;59300;52.074;4.758;2023-02-03T15:39:13;102884.88;;;8.70;100.00
71485;BME280;59300;52.074;4.758;2023-02-03T15:48:55;102889.13;;;8.57;100.00
71485;BME280;59300;52.074;4.758;2023-02-03T15:52:02;102897.06;;;8.60;100.00
71485;BME280;59300;52.074;4.758;2023-02-03T15:55:53;102895.19;;;8.52;100.00
71485;BME280;59300;52.074;4.758;2023-02-03T15:58:30;102895.19;;;8.53;100.00
71485;BME280;59300;52.074;4.758;2023-02-03T16:01:33;102901.31;;;8.52;100.00
71485;BME280;59300;52.074;4.758;2023-02-03T16:04:34;102907.34;;;8.46;100.00
71485;BME280;59300;52.074;4.758;2023-02-03T16:07:36;102905.56;;;8.44;100.00
71485;BME280;59300;52.074;4.758;2023-02-03T16:10:37;102902.81;;;8.36;100.00
71485;BME280;59300;52.074;4.758;2023-02-03T16:13:41;102903.66;;;8.34;100.00
71485;BME280;59300;52.074;4.758;2023-02-03T16:16:48;102908.03;;;8.32;100.00
71485;BME280;59300;52.074;4.758;2023-02-03T16:23:22;102906.94;;;8.17;100.00
71485;BME280;59300;52.074;4.758;2023-02-03T16:26:25;102922.69;;;8.15;100.00
71485;BME280;59300;52.074;4.758;2023-02-03T16:29:27;102926.13;;;8.13;100.00
71485;BME280;59300;52.074;4.758;2023-02-03T16:32:29;102925.09;;;8.02;100.00
71485;BME280;59300;52.074;4.758;2023-02-03T16:35:30;102925.84;;;7.93;100.00
71485;BME280;59300;52.074;4.758;2023-02-03T16:38:32;102935.38;;;7.86;100.00
71485;BME280;59300;52.074;4.758;2023-02-03T16:41:33;102939.78;;;7.87;100.00
71485;BME280;59300;52.074;4.758;2023-02-03T16:44:36;102934.53;;;7.87;100.00
71485;BME280;59300;52.074;4.758;2023-02-03T16:47:38;102932.75;;;7.86;100.00
71485;BME280;59300;52.074;4.758;2023-02-03T16:50:39;102949.38;;;7.85;100.00
71485;BME280;59300;52.074;4.758;2023-02-03T16:53:41;102953.81;;;7.89;100.00
71485;BME280;59300;52.074;4.758;2023-02-03T16:56:43;102959.84;;;7.83;100.00
71485;BME280;59300;52.074;4.758;2023-02-03T16:59:44;102964.16;;;7.80;100.00
71485;BME280;59300;52.074;4.758;2023-02-03T17:02:49;102974.59;;;7.75;100.00
71485;BME280;59300;52.074;4.758;2023-02-03T17:05:50;102979.94;;;7.80;100.00
71485;BME280;59300;52.074;4.758;2023-02-03T17:08:52;102979.00;;;7.76;100.00
71485;BME280;59300;52.074;4.758;2023-02-03T17:11:53;102978.16;;;7.79;100.00
71485;BME280;59300;52.074;4.758;2023-02-03T17:14:55;102985.97;;;7.74;100.00
71485;BME280;59300;52.074;4.758;2023-02-03T17:17:58;102982.44;;;7.72;100.00
71485;BME280;59300;52.074;4.758;2023-02-03T17:21:06;102986.00;;;7.76;100.00
71485;BME280;59300;52.074;4.758;2023-02-03T17:24:08;102997.38;;;7.75;100.00
71485;BME280;59300;52.074;4.758;2023-02-03T17:27:10;103008.63;;;7.67;100.00
71485;BME280;59300;52.074;4.758;2023-02-03T17:30:11;103019.22;;;7.72;100.00
71485;BME280;59300;52.074;4.758;2023-02-03T17:33:13;103019.28;;;7.75;100.00
71485;BME280;59300;52.074;4.758;2023-02-03T17:36:15;103021.78;;;7.67;100.00
71485;BME280;59300;52.074;4.758;2023-02-03T17:39:17;103015.56;;;7.62;100.00
71485;BME280;59300;52.074;4.758;2023-02-03T17:42:36;103028.72;;;7.65;100.00
71485;BME280;59300;52.074;4.758;2023-02-03T17:45:56;103037.47;;;7.64;100.00
71485;BME280;59300;52.074;4.758;2023-02-03T17:49:15;103033.94;;;7.62;100.00
71485;BME280;59300;52.074;4.758;2023-02-03T17:52:34;103026.97;;;7.64;100.00
71485;BME280;59300;52.074;4.758;2023-02-03T17:55:53;103029.41;;;7.55;100.00
71485;BME280;59300;52.074;4.758;2023-02-03T17:58:55;103036.47;;;7.58;100.00
71485;BME280;59300;52.074;4.758;2023-02-03T18:01:56;103039.00;;;7.53;100.00
71485;BME280;59300;52.074;4.758;2023-02-03T18:04:58;103044.31;;;7.55;100.00
71485;BME280;59300;52.074;4.758;2023-02-03T18:07:59;103054.69;;;7.50;100.00
71485;BME280;59300;52.074;4.758;2023-02-03T18:11:13;103060.94;;;7.55;100.00
71485;BME280;59300;52.074;4.758;2023-02-03T18:14:14;103060.97;;;7.57;100.00